Time;durP1;ratioP1;P1;durP2;ratioP2;P2;SDS_P1;SDS_P2;PMS_P1;PMS_P2;Temp;Humidity;BMP_temperature;BMP_pressure;BME280_temperature;BME280_humidity;BME280_pressure;Samples;Min_cycle;Max_cycle;Signal;HPM_P1;HPM_P2
2022/07/22 00:03:05;;;;;;;15.15;12.77;;;15.60;99.90;;;;;;8266463;28;20089;-78
2022/07/22 00:07:05;;;;;;;15.48;13.05;;;15.40;99.90;;;;;;8265875;28;20137;-78
2022/07/22 00:11:06;;;;;;;15.45;11.82;;;15.50;99.90;;;;;;8264874;28;20030;-79
2022/07/22 00:15:08;;;;;;;15.82;12.13;;;15.50;99.90;;;;;;8265550;28;20022;-79
2022/07/22 00:19:08;;;;;;;15.65;12.43;;;15.60;99.90;;;;;;8265661;28;20110;-79
2022/07/22 00:23:09;;;;;;;16.45;13.45;;;15.50;99.90;;;;;;8266208;28;20510;-79
2022/07/22 00:27:10;;;;;;;14.05;12.55;;;15.40;99.90;;;;;;8264933;28;20113;-78
2022/07/22 00:31:10;;;;;;;16.27;12.60;;;15.40;99.90;;;;;;8264133;28;20023;-79
2022/07/22 00:35:11;;;;;;;16.42;12.57;;;15.20;99.90;;;;;;8266180;28;20026;-81
2022/07/22 00:39:11;;;;;;;15.60;12.95;;;15.00;99.90;;;;;;8264251;28;20022;-78
2022/07/22 00:43:12;;;;;;;17.10;12.43;;;14.90;99.90;;;;;;8263988;28;20664;-78
2022/07/22 00:47:13;;;;;;;20.23;11.40;;;14.70;99.90;;;;;;8280800;28;20390;-79
2022/07/22 00:51:13;;;;;;;16.95;13.13;;;14.60;99.90;;;;;;8263388;28;20018;-78
2022/07/22 00:55:14;;;;;;;15.75;13.02;;;14.50;99.90;;;;;;8258221;28;20398;-79
2022/07/22 00:59:15;;;;;;;17.58;14.38;;;14.40;99.90;;;;;;8257675;28;20026;-79
2022/07/22 01:03:16;;;;;;;18.88;13.82;;;14.50;99.90;;;;;;8257443;28;20023;-79
2022/07/22 01:07:17;;;;;;;15.95;12.82;;;14.40;99.90;;;;;;8263517;28;20018;-78
2022/07/22 01:11:19;;;;;;;15.77;13.25;;;14.50;99.90;;;;;;8263003;28;20085;-79
2022/07/22 01:15:20;;;;;;;16.00;13.07;;;14.60;99.90;;;;;;8287944;23;20018;-79
2022/07/22 01:19:21;;;;;;;14.88;13.00;;;14.50;99.90;;;;;;8309105;28;20034;-78
2022/07/22 01:23:22;;;;;;;20.60;13.38;;;14.40;99.90;;;;;;8296115;28;20060;-78
2022/07/22 01:27:22;;;;;;;16.25;13.35;;;14.50;99.90;;;;;;8295736;28;20025;-78
2022/07/22 01:31:23;;;;;;;15.77;12.02;;;14.30;99.90;;;;;;8295305;28;20072;-79
2022/07/22 01:35:23;;;;;;;16.10;13.02;;;14.20;99.90;;;;;;8295756;28;20034;-79
2022/07/22 01:39:24;;;;;;;16.75;13.50;;;14.20;99.90;;;;;;8296437;28;20029;-79
2022/07/22 01:43:25;;;;;;;17.05;13.57;;;14.20;99.90;;;;;;8295097;28;20398;-78
2022/07/22 01:47:25;;;;;;;18.70;13.57;;;14.10;99.90;;;;;;8296326;28;20025;-79
2022/07/22 01:51:26;;;;;;;18.77;14.38;;;14.10;99.90;;;;;;8295670;28;20018;-79
2022/07/22 01:55:26;;;;;;;18.55;13.85;;;14.10;99.90;;;;;;8294841;28;20478;-79
2022/07/22 01:59:27;;;;;;;16.15;13.82;;;14.10;99.90;;;;;;8294551;28;20029;-78
2022/07/22 02:03:27;;;;;;;15.25;12.82;;;14.10;99.90;;;;;;8293444;28;20165;-78
2022/07/22 02:07:28;;;;;;;17.55;12.65;;;14.10;99.90;;;;;;8295583;28;20076;-79
2022/07/22 02:11:28;;;;;;;14.88;12.55;;;13.90;99.90;;;;;;8310945;28;20026;-78
2022/07/22 02:15:29;;;;;;;17.42;13.43;;;13.70;99.90;;;;;;8295679;28;20032;-79
2022/07/22 02:19:30;;;;;;;19.63;14.00;;;13.60;99.90;;;;;;8295244;28;20505;-79
2022/07/22 02:23:30;;;;;;;17.60;14.48;;;13.50;99.90;;;;;;8292974;28;20495;-79
2022/07/22 02:27:31;;;;;;;21.88;15.05;;;13.50;99.90;;;;;;8293665;28;20030;-78
2022/07/22 02:31:31;;;;;;;22.50;16.38;;;13.50;99.90;;;;;;8293292;28;20478;-79
2022/07/22 02:35:32;;;;;;;19.55;14.60;;;13.50;99.90;;;;;;8293412;28;20049;-78
2022/07/22 02:39:33;;;;;;;21.30;12.18;;;13.40;99.90;;;;;;8294630;28;20018;-78
2022/07/22 02:43:33;;;;;;;20.42;13.40;;;13.20;99.90;;;;;;8293283;28;20037;-78
2022/07/22 02:47:34;;;;;;;22.85;15.90;;;13.00;99.90;;;;;;8295258;28;20018;-78
2022/07/22 02:51:34;;;;;;;24.08;16.92;;;12.90;99.90;;;;;;8292751;28;20039;-78
2022/07/22 02:55:35;;;;;;;23.55;14.68;;;13.00;99.90;;;;;;8292975;28;20021;-79
2022/07/22 02:59:36;;;;;;;23.35;14.30;;;13.00;99.90;;;;;;8292772;28;20045;-78
2022/07/22 03:03:36;;;;;;;21.05;14.10;;;13.10;99.90;;;;;;8292687;28;20026;-79
2022/07/22 03:07:37;;;;;;;18.35;13.85;;;13.10;99.90;;;;;;8294089;28;20602;-78
2022/07/22 03:11:38;;;;;;;19.48;14.52;;;13.10;99.90;;;;;;8293876;28;20029;-78
2022/07/22 03:15:38;;;;;;;20.80;14.20;;;13.00;99.90;;;;;;8308589;28;20065;-79
2022/07/22 03:19:39;;;;;;;27.75;15.50;;;12.90;99.90;;;;;;8292326;28;20068;-79
2022/07/22 03:23:39;;;;;;;22.50;15.20;;;12.90;99.90;;;;;;8293532;28;20025;-78
2022/07/22 03:27:40;;;;;;;19.83;14.07;;;12.80;99.90;;;;;;8292327;28;20390;-78
2022/07/22 03:31:40;;;;;;;21.05;14.32;;;12.80;99.90;;;;;;8292136;28;20018;-79
2022/07/22 03:35:41;;;;;;;20.20;15.02;;;12.80;99.90;;;;;;8293384;28;20038;-78
2022/07/22 03:39:41;;;;;;;21.85;14.20;;;12.80;99.90;;;;;;8292103;28;20030;-79
2022/07/22 03:43:42;;;;;;;22.15;15.40;;;12.70;99.90;;;;;;8292263;28;20026;-78
2022/07/22 03:47:42;;;;;;;18.20;14.10;;;12.60;99.90;;;;;;8308329;28;20022;-79
2022/07/22 03:51:43;;;;;;;30.98;15.82;;;12.70;99.90;;;;;;8287423;28;20096;-79
2022/07/22 03:55:43;;;;;;;20.75;14.40;;;12.50;99.90;;;;;;8291711;28;20076;-79
2022/07/22 03:59:44;;;;;;;20.63;13.93;;;12.40;99.90;;;;;;8291890;28;20032;-78
2022/07/22 04:03:44;;;;;;;24.92;16.45;;;12.40;99.90;;;;;;8290761;28;20026;-78
2022/07/22 04:07:45;;;;;;;29.60;16.23;;;12.40;99.90;;;;;;8290700;28;20057;-79
2022/07/22 04:11:46;;;;;;;18.45;13.40;;;12.90;99.90;;;;;;8291770;28;20445;-79
2022/07/22 04:15:46;;;;;;;18.25;13.25;;;13.30;99.90;;;;;;8279352;28;20095;-79
2022/07/22 04:19:47;;;;;;;28.58;12.70;;;13.80;99.90;;;;;;8278328;28;20034;-79
2022/07/22 04:23:48;;;;;;;15.93;11.85;;;14.20;99.90;;;;;;8284114;28;20065;-80
2022/07/22 04:27:50;;;;;;;15.10;11.30;;;14.50;99.90;;;;;;8283523;28;20022;-79
2022/07/22 04:31:51;;;;;;;13.55;10.65;;;14.90;99.90;;;;;;8288627;28;20033;-79
2022/07/22 04:35:51;;;;;;;14.43;10.68;;;15.20;99.90;;;;;;8294593;28;20030;-86
2022/07/22 04:39:52;;;;;;;14.93;10.57;;;15.20;99.90;;;;;;8291000;28;20060;-86
2022/07/22 04:43:52;;;;;;;15.02;10.77;;;15.30;99.90;;;;;;8288330;28;20026;-86
2022/07/22 04:47:53;;;;;;;12.57;10.70;;;15.40;99.90;;;;;;8284562;28;20037;-86
2022/07/22 04:51:53;;;;;;;13.48;11.48;;;15.20;99.90;;;;;;8291598;28;20056;-86
2022/07/22 04:55:54;;;;;;;11.40;10.07;;;15.70;99.90;;;;;;8289456;28;20030;-86
2022/07/22 04:59:54;;;;;;;14.05;10.25;;;16.50;99.90;;;;;;8286797;28;20041;-86
2022/07/22 05:03:55;;;;;;;14.40;9.95;;;16.90;99.90;;;;;;8295091;28;20050;-86
2022/07/22 05:07:55;;;;;;;15.05;9.77;;;17.70;99.90;;;;;;8293385;28;20448;-86
2022/07/22 05:11:56;;;;;;;10.98;9.10;;;18.60;99.90;;;;;;8299570;28;20026;-87
2022/07/22 05:15:56;;;;;;;10.98;8.93;;;19.20;99.90;;;;;;8295302;28;20092;-87
2022/07/22 05:19:57;;;;;;;10.80;8.98;;;19.90;99.90;;;;;;8295743;28;20028;-86
2022/07/22 05:23:58;;;;;;;14.50;9.23;;;20.20;99.90;;;;;;8294194;28;20033;-87
2022/07/22 05:27:58;;;;;;;13.38;9.85;;;20.30;99.90;;;;;;8293245;28;20425;-87
2022/07/22 05:31:59;;;;;;;11.13;9.10;;;21.00;99.90;;;;;;8294138;28;20041;-87
2022/07/22 05:35:59;;;;;;;12.93;9.02;;;21.60;99.90;;;;;;8294282;28;20036;-87
2022/07/22 05:40:00;;;;;;;11.15;9.77;;;22.20;99.90;;;;;;8289422;28;20038;-80
2022/07/22 05:44:00;;;;;;;12.30;9.77;;;22.50;99.90;;;;;;8293318;28;20037;-81
2022/07/22 05:48:01;;;;;;;12.30;9.85;;;22.50;99.90;;;;;;8293224;28;20028;-80
2022/07/22 05:52:02;;;;;;;10.73;9.00;;;22.90;99.90;;;;;;8293553;28;20307;-81
2022/07/22 05:56:02;;;;;;;10.95;9.60;;;23.60;99.90;;;;;;8292784;28;20029;-81
2022/07/22 06:00:05;;;;;;;9.85;8.85;;;23.60;99.90;;;;;;8289612;28;20040;-81
2022/07/22 06:04:05;;;;;;;10.52;9.45;;;24.10;99.90;;;;;;8291827;28;20033;-81
2022/07/22 06:08:06;;;;;;;10.35;9.25;;;24.30;99.90;;;;;;8291944;28;20501;-80
2022/07/22 06:12:07;;;;;;;13.98;10.10;;;24.20;99.90;;;;;;8290627;28;20037;-80
2022/07/22 06:16:07;;;;;;;11.63;9.43;;;24.90;99.90;;;;;;8285132;28;20057;-80
2022/07/22 06:20:08;;;;;;;11.63;9.95;;;25.70;99.90;;;;;;8287908;28;20022;-80
2022/07/22 06:24:09;;;;;;;10.55;9.43;;;26.00;99.90;;;;;;8288063;28;20021;-80
2022/07/22 06:28:10;;;;;;;10.30;9.30;;;26.60;99.90;;;;;;8286550;28;20465;-80
2022/07/22 06:32:11;;;;;;;10.85;9.75;;;27.10;99.90;;;;;;8290283;28;20134;-80
2022/07/22 06:36:14;;;;;;;11.38;8.75;;;27.60;99.90;;;;;;8299473;28;20022;-82
2022/07/22 06:40:14;;;;;;;10.27;9.00;;;27.60;99.90;;;;;;8291385;28;20072;-79
2022/07/22 06:44:15;;;;;;;9.80;8.30;;;27.60;99.90;;;;;;8292680;28;20112;-81
2022/07/22 06:48:15;;;;;;;8.93;7.95;;;27.50;99.90;;;;;;8291211;28;20096;-81
2022/07/22 06:52:16;;;;;;;8.80;6.60;;;27.70;99.90;;;;;;8286877;28;20104;-82
2022/07/22 06:56:16;;;;;;;8.57;6.72;;;27.60;99.90;;;;;;8283023;28;20025;-81
2022/07/22 07:00:17;;;;;;;8.60;6.28;;;27.70;99.90;;;;;;8291754;28;20064;-81
2022/07/22 07:04:18;;;;;;;8.25;6.68;;;27.30;99.90;;;;;;8290430;28;20406;-82
2022/07/22 07:08:19;;;;;;;7.45;6.47;;;27.40;99.90;;;;;;8292386;28;20056;-81
2022/07/22 07:12:19;;;;;;;7.90;7.00;;;27.60;99.90;;;;;;8290471;28;20018;-82
2022/07/22 07:16:20;;;;;;;8.65;7.03;;;27.30;99.90;;;;;;8284968;28;20975;-82
2022/07/22 07:20:21;;;;;;;8.10;7.03;;;27.70;99.90;;;;;;8288446;28;20026;-80
2022/07/22 07:24:21;;;;;;;9.82;7.18;;;27.50;99.90;;;;;;8292329;28;20409;-81
2022/07/22 07:28:22;;;;;;;8.65;6.68;;;27.90;99.90;;;;;;8277153;28;20074;-82
2022/07/22 07:32:22;;;;;;;8.07;7.00;;;28.30;99.00;;;;;;8288775;28;20091;-82
2022/07/22 07:36:23;;;;;;;8.50;7.13;;;28.60;98.30;;;;;;8284006;28;20104;-81
2022/07/22 07:40:23;;;;;;;8.02;6.90;;;28.80;98.10;;;;;;8289005;28;20032;-82
2022/07/22 07:44:24;;;;;;;9.63;7.18;;;28.70;96.60;;;;;;8279907;28;20104;-82
2022/07/22 07:48:24;;;;;;;7.28;6.18;;;29.20;96.50;;;;;;8284129;28;20097;-82
2022/07/22 07:52:25;;;;;;;13.27;6.40;;;28.80;94.90;;;;;;8290173;28;20050;-82
2022/07/22 07:56:26;;;;;;;9.32;7.20;;;28.50;94.60;;;;;;8281524;28;20034;-81
2022/07/22 08:00:28;;;;;;;10.40;7.13;;;28.40;94.60;;;;;;8283042;28;20034;-82
2022/07/22 08:04:29;;;;;;;8.13;6.85;;;28.60;94.90;;;;;;8296750;28;20441;-82
2022/07/22 08:08:29;;;;;;;8.18;6.18;;;28.90;94.50;;;;;;8292213;28;20080;-82
2022/07/22 08:12:30;;;;;;;7.50;6.53;;;29.20;94.10;;;;;;8286944;28;20019;-80
2022/07/22 08:16:30;;;;;;;8.35;6.85;;;29.20;94.60;;;;;;8303130;28;20033;-82
2022/07/22 08:20:31;;;;;;;9.23;6.50;;;28.70;94.50;;;;;;8278456;28;20326;-82
2022/07/22 08:24:32;;;;;;;10.77;7.53;;;28.80;96.00;;;;;;8295671;28;20053;-82
2022/07/22 08:28:32;;;;;;;8.50;7.20;;;29.10;93.30;;;;;;8295909;28;20505;-82
2022/07/22 08:32:34;;;;;;;8.02;7.22;;;29.70;93.80;;;;;;8297102;28;20029;-81
2022/07/22 08:36:34;;;;;;;11.15;6.88;;;29.40;94.90;;;;;;8294841;28;20022;-82
2022/07/22 08:40:35;;;;;;;9.27;7.32;;;29.70;96.80;;;;;;8296672;28;20025;-83
2022/07/22 08:44:36;;;;;;;8.77;7.13;;;29.90;95.00;;;;;;8292044;28;20045;-82
2022/07/22 08:48:37;;;;;;;8.27;7.28;;;29.80;93.30;;;;;;8285949;28;20054;-82
2022/07/22 08:52:38;;;;;;;10.20;7.63;;;29.90;93.00;;;;;;8292973;28;20026;-82
2022/07/22 08:56:39;;;;;;;8.13;6.88;;;29.80;96.30;;;;;;8294824;28;20026;-82
2022/07/22 09:00:40;;;;;;;8.05;6.95;;;30.00;93.90;;;;;;8293290;28;20038;-82
2022/07/22 09:04:59;;;;;;;7.30;6.70;;;30.30;94.30;;;;;;8292201;28;20030;-82
2022/07/22 09:09:03;;;;;;;7.90;6.07;;;29.80;92.20;;;;;;8288645;28;20104;-82
2022/07/22 09:13:06;;;;;;;8.25;6.70;;;29.80;94.90;;;;;;8293391;28;20022;-82
2022/07/22 09:17:07;;;;;;;7.38;6.38;;;30.10;90.40;;;;;;8295403;28;20454;-83
2022/07/22 09:21:13;;;;;;;7.72;6.75;;;30.30;93.60;;;;;;8290382;28;20034;-82
2022/07/22 09:25:26;;;;;;;7.40;6.28;;;30.30;89.50;;;;;;8296237;28;20475;-82
2022/07/22 09:29:26;;;;;;;7.43;6.00;;;30.60;93.70;;;;;;8295044;28;20026;-83
2022/07/22 09:33:27;;;;;;;7.35;6.03;;;31.00;89.40;;;;;;8295611;28;20076;-83
2022/07/22 09:37:27;;;;;;;5.90;5.28;;;31.60;84.70;;;;;;8295786;28;20028;-83
2022/07/22 09:41:28;;;;;;;7.63;5.43;;;31.60;82.90;;;;;;8296188;28;20029;-82
2022/07/22 09:45:30;;;;;;;7.28;6.00;;;31.30;85.50;;;;;;8291687;28;20099;-83
2022/07/22 09:49:38;;;;;;;8.15;6.03;;;31.60;86.20;;;;;;8287901;28;20097;-83
2022/07/22 09:53:39;;;;;;;7.72;5.90;;;31.90;79.50;;;;;;8291096;28;20061;-83
2022/07/22 09:57:40;;;;;;;6.63;5.30;;;31.90;86.60;;;;;;8287299;28;20425;-82
2022/07/22 10:01:42;;;;;;;7.57;5.85;;;31.40;75.40;;;;;;8292559;28;20026;-82
2022/07/22 10:05:42;;;;;;;6.32;5.70;;;30.80;77.90;;;;;;8289671;28;20058;-82
2022/07/22 10:09:45;;;;;;;11.57;6.07;;;30.90;81.60;;;;;;8291079;28;20038;-82
2022/07/22 10:13:46;;;;;;;5.97;5.38;;;31.30;80.30;;;;;;8294560;28;20052;-81
2022/07/22 10:17:53;;;;;;;6.55;5.63;;;31.10;81.10;;;;;;8294317;28;20109;-82
2022/07/22 10:21:53;;;;;;;5.68;4.88;;;31.20;83.20;;;;;;8295746;28;20032;-82
2022/07/22 10:25:58;;;;;;;8.20;5.70;;;31.50;76.90;;;;;;8293811;28;20022;-82
2022/07/22 10:29:59;;;;;;;6.20;5.28;;;31.50;76.40;;;;;;8282820;28;20022;-82
2022/07/22 10:34:00;;;;;;;6.10;5.50;;;31.20;75.60;;;;;;8281435;28;20069;-81
2022/07/22 10:38:07;;;;;;;6.25;5.28;;;31.10;79.20;;;;;;8277273;28;20030;-82
2022/07/22 10:42:07;;;;;;;7.38;6.00;;;31.50;78.40;;;;;;8286931;28;20037;-82
2022/07/22 10:46:09;;;;;;;6.63;5.47;;;31.90;76.80;;;;;;8285163;28;20539;-82
2022/07/22 10:50:37;;;;;;;5.80;5.30;;;32.60;70.10;;;;;;8286253;28;20019;-82
2022/07/22 10:55:16;;;;;;;6.45;5.13;;;32.80;73.60;;;;;;8287712;28;20398;-82
2022/07/22 10:59:19;;;;;;;6.25;5.07;;;34.10;69.40;;;;;;8252153;28;20038;-82
2022/07/22 11:03:25;;;;;;;6.65;4.90;;;34.30;63.00;;;;;;8290763;28;20417;-83
2022/07/22 11:07:27;;;;;;;4.95;4.45;;;34.00;58.60;;;;;;8287031;28;20297;-82
2022/07/22 11:11:45;;;;;;;8.10;4.95;;;34.30;59.10;;;;;;8290968;28;20121;-82
2022/07/22 11:15:45;;;;;;;6.13;5.03;;;35.10;56.50;;;;;;8291002;28;20079;-83
2022/07/22 11:19:51;;;;;;;6.18;4.93;;;35.00;57.70;;;;;;8289875;28;20038;-82
2022/07/22 11:23:55;;;;;;;5.30;4.80;;;35.50;56.20;;;;;;8290668;28;20095;-83
2022/07/22 11:27:57;;;;;;;5.20;4.78;;;36.10;56.00;;;;;;8290460;28;20029;-82
2022/07/22 11:31:59;;;;;;;6.13;4.88;;;36.00;53.90;;;;;;8288685;28;20387;-83
2022/07/22 11:36:05;;;;;;;5.88;4.72;;;36.40;54.70;;;;;;8292067;28;20144;-81
2022/07/22 11:40:07;;;;;;;6.15;4.80;;;36.70;51.10;;;;;;8296940;28;20414;-82
2022/07/22 11:44:08;;;;;;;5.25;4.68;;;35.90;54.80;;;;;;8294725;28;20052;-83
2022/07/22 11:48:09;;;;;;;5.85;4.72;;;36.60;50.20;;;;;;8293678;28;20026;-83
2022/07/22 11:52:13;;;;;;;9.25;4.75;;;37.30;51.20;;;;;;8292205;28;20054;-83
2022/07/22 11:56:13;;;;;;;6.63;4.53;;;37.00;50.00;;;;;;8292052;28;20080;-83
2022/07/22 12:00:19;;;;;;;6.38;4.65;;;37.30;47.90;;;;;;8289618;28;20026;-83
2022/07/22 12:04:23;;;;;;;5.10;4.70;;;38.00;48.80;;;;;;8295480;28;20030;-82
2022/07/22 12:08:24;;;;;;;5.95;4.55;;;39.20;43.80;;;;;;8296823;28;20748;-83
2022/07/22 12:12:40;;;;;;;5.20;4.70;;;39.80;44.50;;;;;;8295599;28;20029;-83
2022/07/22 12:16:42;;;;;;;6.15;4.70;;;40.00;41.00;;;;;;8292798;28;20029;-83
2022/07/22 12:20:44;;;;;;;5.45;4.35;;;40.70;43.80;;;;;;8296618;28;20021;-83
2022/07/22 12:24:56;;;;;;;7.25;4.75;;;41.20;41.80;;;;;;8290920;28;20113;-83
2022/07/22 12:29:13;;;;;;;5.93;4.53;;;39.70;41.80;;;;;;8295648;28;20110;-82
2022/07/22 12:33:15;;;;;;;5.68;5.07;;;38.80;43.50;;;;;;8296610;28;20029;-82
2022/07/22 12:37:23;;;;;;;5.40;4.80;;;38.70;41.90;;;;;;8294281;28;20304;-83
2022/07/22 12:41:29;;;;;;;5.93;5.00;;;39.30;42.50;;;;;;8296472;28;20382;-83
2022/07/22 12:45:31;;;;;;;8.88;4.55;;;39.50;40.90;;;;;;8296723;28;20038;-82
2022/07/22 12:49:32;;;;;;;6.40;5.10;;;40.20;40.70;;;;;;8294681;28;20025;-82
2022/07/22 12:53:33;;;;;;;5.15;4.70;;;39.30;41.20;;;;;;8290164;28;20030;-83
2022/07/22 12:57:33;;;;;;;5.07;4.57;;;40.10;41.70;;;;;;8294724;28;20045;-83
2022/07/22 13:01:34;;;;;;;5.78;4.82;;;41.50;40.90;;;;;;8293552;28;20029;-82
2022/07/22 13:05:35;;;;;;;6.78;4.68;;;42.70;35.90;;;;;;8295919;28;20044;-82
2022/07/22 13:09:36;;;;;;;10.88;4.85;;;41.60;37.20;;;;;;8295037;28;20322;-82
2022/07/22 13:13:36;;;;;;;6.05;4.70;;;40.20;41.60;;;;;;8294802;28;20101;-82
2022/07/22 13:17:38;;;;;;;6.00;4.72;;;40.60;36.80;;;;;;8294763;28;20038;-82
2022/07/22 13:21:39;;;;;;;5.72;4.63;;;41.20;37.50;;;;;;8291442;28;20502;-82
2022/07/22 13:25:39;;;;;;;6.85;4.50;;;39.90;40.20;;;;;;8291261;28;20030;-82
2022/07/22 13:29:40;;;;;;;4.72;4.32;;;40.50;39.00;;;;;;8286535;28;20036;-82
2022/07/22 13:33:40;;;;;;;7.05;4.82;;;41.20;36.30;;;;;;8288678;28;20064;-83
2022/07/22 13:37:41;;;;;;;5.13;4.63;;;42.70;34.00;;;;;;8292880;28;20038;-83
2022/07/22 13:41:41;;;;;;;5.70;4.28;;;43.30;34.10;;;;;;8293576;28;20034;-83
2022/07/22 13:45:42;;;;;;;4.97;4.47;;;41.90;32.60;;;;;;8293711;28;20029;-83
2022/07/22 13:49:44;;;;;;;5.30;4.80;;;42.90;32.10;;;;;;8284471;28;20124;-83
2022/07/22 13:53:44;;;;;;;5.32;4.63;;;43.70;33.60;;;;;;8288973;28;20030;-83
2022/07/22 13:57:46;;;;;;;5.85;4.60;;;43.70;32.10;;;;;;8293873;28;20390;-83
2022/07/22 14:01:48;;;;;;;5.53;4.75;;;44.60;31.40;;;;;;8296122;28;20026;-82
2022/07/22 14:05:48;;;;;;;5.25;4.75;;;41.10;33.20;;;;;;8284907;28;20066;-83
2022/07/22 14:09:49;;;;;;;4.90;4.20;;;40.70;34.60;;;;;;8287098;28;20037;-83
2022/07/22 14:13:49;;;;;;;5.40;4.78;;;41.10;36.40;;;;;;8292413;28;20486;-82
2022/07/22 14:17:50;;;;;;;5.13;4.43;;;41.90;33.80;;;;;;8287822;28;20034;-82
2022/07/22 14:21:50;;;;;;;5.38;4.85;;;41.90;34.50;;;;;;8292426;28;20478;-83
2022/07/22 14:25:51;;;;;;;5.20;4.70;;;43.30;31.20;;;;;;8295045;28;20040;-83
2022/07/22 14:29:51;;;;;;;5.30;4.80;;;44.20;31.30;;;;;;8292024;28;20120;-83
2022/07/22 14:33:53;;;;;;;5.82;5.18;;;44.80;32.80;;;;;;8293153;28;20018;-83
2022/07/22 14:37:54;;;;;;;5.47;4.97;;;43.70;32.00;;;;;;8288202;28;20533;-83
2022/07/22 14:41:54;;;;;;;6.45;5.30;;;44.40;33.30;;;;;;8281681;28;20030;-84
2022/07/22 14:45:55;;;;;;;5.88;4.70;;;45.60;30.20;;;;;;8290323;28;20034;-83
2022/07/22 14:49:55;;;;;;;7.40;5.28;;;46.00;29.40;;;;;;8296570;28;20038;-83
2022/07/22 14:53:56;;;;;;;5.20;4.80;;;44.20;30.80;;;;;;8296480;28;20034;-82
2022/07/22 14:57:56;;;;;;;6.90;5.65;;;43.70;30.90;;;;;;8293544;28;20018;-84
2022/07/22 15:01:57;;;;;;;5.78;5.28;;;43.50;30.60;;;;;;8293260;28;20026;-84
2022/07/22 15:05:57;;;;;;;5.55;5.05;;;43.00;31.30;;;;;;8286995;28;20053;-82
2022/07/22 15:09:58;;;;;;;6.07;5.25;;;43.50;30.00;;;;;;8290483;28;20064;-83
2022/07/22 15:13:58;;;;;;;6.60;5.50;;;44.60;30.10;;;;;;8282862;28;20030;-81
2022/07/22 15:17:59;;;;;;;6.50;5.40;;;43.60;33.10;;;;;;8294276;28;20026;-82
2022/07/22 15:22:00;;;;;;;7.70;5.45;;;42.00;33.60;;;;;;8294973;28;20107;-83
2022/07/22 15:26:02;;;;;;;5.82;5.32;;;42.70;32.20;;;;;;8288935;28;20036;-83
2022/07/22 15:30:04;;;;;;;7.20;5.22;;;43.50;32.40;;;;;;8284785;28;20047;-83
2022/07/22 15:34:05;;;;;;;6.57;5.32;;;45.30;32.40;;;;;;8284700;28;20026;-83
2022/07/22 15:38:06;;;;;;;5.78;5.15;;;45.40;30.60;;;;;;8286319;28;20057;-82
2022/07/22 15:42:06;;;;;;;6.22;5.60;;;45.20;28.90;;;;;;8283158;28;20382;-82
2022/07/22 15:46:08;;;;;;;5.85;5.25;;;43.00;32.00;;;;;;8288487;28;20492;-82
2022/07/22 15:50:09;;;;;;;8.75;5.10;;;39.00;36.20;;;;;;8283683;28;20401;-81
2022/07/22 15:54:09;;;;;;;5.93;5.40;;;35.70;42.20;;;;;;8288118;28;20057;-81
2022/07/22 16:02:29;;;;;;;10.00;5.80;;;32.90;47.80;;;;;;8288041;28;20045;-82
2022/07/22 16:06:30;;;;;;;6.82;5.90;;;32.40;47.60;;;;;;8292411;28;20056;-81
2022/07/22 16:10:31;;;;;;;7.03;5.47;;;32.40;45.30;;;;;;8290949;28;20037;-82
2022/07/22 16:14:31;;;;;;;6.50;5.85;;;32.40;50.00;;;;;;8293072;28;20383;-82
2022/07/22 16:18:32;;;;;;;9.57;5.57;;;32.20;48.20;;;;;;8285720;28;21160;-82
2022/07/22 16:22:32;;;;;;;6.38;5.43;;;32.10;53.90;;;;;;8291740;28;20026;-82
2022/07/22 16:26:33;;;;;;;8.13;6.20;;;32.00;54.50;;;;;;8292320;28;20030;-81
2022/07/22 16:30:34;;;;;;;6.95;5.75;;;31.90;52.00;;;;;;8293903;28;20026;-81
2022/07/22 16:34:34;;;;;;;7.70;6.13;;;31.90;53.60;;;;;;8298074;28;20025;-81
2022/07/22 16:38:35;;;;;;;9.95;5.82;;;32.60;51.20;;;;;;8293215;28;20022;-82
2022/07/22 16:42:35;;;;;;;6.80;5.90;;;33.00;52.10;;;;;;8286479;28;20029;-82
2022/07/22 16:46:36;;;;;;;7.57;5.43;;;33.20;47.70;;;;;;8292460;28;20474;-81
2022/07/22 16:50:37;;;;;;;5.85;5.25;;;33.40;42.40;;;;;;8289919;28;20041;-82
2022/07/22 16:54:37;;;;;;;6.45;5.80;;;33.20;48.00;;;;;;8286878;28;20117;-82
2022/07/22 16:58:38;;;;;;;8.77;5.70;;;32.60;48.00;;;;;;8291569;28;20034;-82
2022/07/22 17:02:38;;;;;;;7.38;5.90;;;32.20;53.80;;;;;;8290969;28;20093;-81
2022/07/22 17:06:39;;;;;;;7.35;5.93;;;31.70;52.80;;;;;;8289665;28;20037;-81
2022/07/22 17:10:39;;;;;;;6.78;5.93;;;31.00;58.60;;;;;;8297504;28;20409;-82
2022/07/22 17:14:40;;;;;;;6.93;5.63;;;30.50;61.30;;;;;;8287899;28;20038;-81
2022/07/22 17:18:40;;;;;;;7.53;5.65;;;30.00;60.00;;;;;;8288534;28;20069;-83
2022/07/22 17:22:42;;;;;;;7.90;5.75;;;29.60;60.90;;;;;;8291379;28;20030;-81
2022/07/22 17:26:42;;;;;;;8.68;5.97;;;29.50;59.30;;;;;;8297718;28;20038;-82
2022/07/22 17:30:43;;;;;;;6.72;5.80;;;29.50;57.40;;;;;;8291559;28;20034;-82
2022/07/22 17:34:47;;;;;;;7.05;5.80;;;29.60;61.10;;;;;;8292306;28;20030;-81
2022/07/22 17:38:47;;;;;;;10.52;6.50;;;29.40;55.60;;;;;;8293441;28;20018;-82
2022/07/22 17:42:48;;;;;;;6.85;5.45;;;29.40;56.50;;;;;;8296186;28;20071;-82
2022/07/22 17:46:48;;;;;;;6.63;5.57;;;29.30;59.30;;;;;;8295083;28;20033;-81
2022/07/22 17:50:49;;;;;;;5.57;5.07;;;29.20;56.20;;;;;;8290706;28;20490;-82
2022/07/22 17:54:50;;;;;;;6.65;5.78;;;29.00;62.10;;;;;;8290417;28;20062;-82
2022/07/22 17:58:50;;;;;;;7.20;5.60;;;28.50;63.10;;;;;;8289655;28;20045;-82
2022/07/22 18:02:52;;;;;;;6.68;5.97;;;28.40;60.80;;;;;;8287119;28;20050;-82
2022/07/22 18:06:53;;;;;;;6.78;5.68;;;28.10;62.00;;;;;;8284799;28;20032;-82
2022/07/22 18:10:56;;;;;;;7.65;5.57;;;27.90;62.70;;;;;;8284890;28;20022;-82
2022/07/22 18:14:58;;;;;;;8.32;6.00;;;27.60;65.30;;;;;;8277249;28;20033;-82
2022/07/22 18:18:59;;;;;;;10.57;6.75;;;27.10;66.30;;;;;;8291908;28;20025;-81
2022/07/22 18:22:59;;;;;;;7.43;6.60;;;27.00;65.80;;;;;;8289795;28;20033;-80
2022/07/22 18:27:00;;;;;;;9.10;6.00;;;26.80;65.80;;;;;;8288663;28;20057;-81
2022/07/22 18:31:01;;;;;;;6.82;5.70;;;26.60;66.70;;;;;;8281807;28;20076;-82
2022/07/22 18:35:02;;;;;;;8.45;6.32;;;26.50;68.30;;;;;;8277226;28;20069;-82
2022/07/22 18:39:03;;;;;;;9.15;6.50;;;26.20;70.50;;;;;;8285829;28;20057;-82
2022/07/22 18:43:03;;;;;;;7.60;6.25;;;26.00;72.10;;;;;;8284700;28;20018;-82
2022/07/22 18:47:04;;;;;;;8.18;6.32;;;25.70;72.10;;;;;;8281202;28;20018;-81
2022/07/22 18:51:05;;;;;;;8.30;6.50;;;25.60;73.90;;;;;;8283175;28;20030;-82
2022/07/22 18:55:07;;;;;;;7.90;6.57;;;25.60;76.20;;;;;;8275673;28;20569;-82
2022/07/22 18:59:08;;;;;;;7.07;6.38;;;25.50;75.80;;;;;;8279213;28;20026;-82
2022/07/22 19:03:08;;;;;;;11.30;6.30;;;25.30;83.80;;;;;;8282710;28;20056;-82
2022/07/22 19:07:09;;;;;;;6.75;6.05;;;25.30;80.40;;;;;;8284481;28;20081;-82
2022/07/22 19:11:09;;;;;;;15.57;6.43;;;25.10;81.80;;;;;;8279768;28;20022;-82
2022/07/22 19:15:10;;;;;;;8.00;6.68;;;25.10;80.30;;;;;;8276714;28;20030;-82
2022/07/22 19:19:11;;;;;;;11.65;6.88;;;24.90;83.30;;;;;;8292200;22;20055;-83
2022/07/22 19:23:19;;;;;;;12.68;7.43;;;24.70;87.20;;;;;;8253458;28;20113;-82
2022/07/22 19:27:20;;;;;;;9.75;7.43;;;24.70;87.80;;;;;;8243130;28;20034;-81
2022/07/22 19:31:35;;;;;;;10.23;7.38;;;24.50;88.80;;;;;;8230520;28;20038;-80
2022/07/22 19:35:36;;;;;;;11.25;7.55;;;24.40;89.20;;;;;;8233248;28;20399;-81
2022/07/22 19:39:36;;;;;;;11.23;7.35;;;24.40;91.70;;;;;;8234778;28;20029;-80
2022/07/22 19:43:37;;;;;;;7.68;6.97;;;24.30;92.10;;;;;;8246386;28;20027;-81
2022/07/22 19:47:37;;;;;;;10.85;7.20;;;24.00;93.00;;;;;;8248513;28;20031;-81
2022/07/22 19:51:38;;;;;;;13.05;7.85;;;23.60;94.10;;;;;;8260199;28;20027;-81
2022/07/22 19:55:39;;;;;;;9.27;7.60;;;23.30;97.10;;;;;;8245341;28;20878;-79
2022/07/22 19:59:39;;;;;;;13.60;7.25;;;23.10;98.10;;;;;;8253273;28;20027;-81
2022/07/22 20:03:43;;;;;;;9.43;7.72;;;23.00;99.80;;;;;;8255451;28;20414;-81
2022/07/22 20:07:43;;;;;;;17.90;9.48;;;23.10;99.60;;;;;;8253077;28;20026;-80
2022/07/22 20:11:44;;;;;;;14.82;8.88;;;23.10;99.90;;;;;;8251770;28;20035;-81
2022/07/22 20:15:44;;;;;;;12.50;8.88;;;22.70;99.90;;;;;;8253536;28;20031;-81
2022/07/22 20:19:45;;;;;;;14.73;8.93;;;22.40;99.90;;;;;;8253439;28;20037;-79
2022/07/22 20:23:47;;;;;;;13.10;8.45;;;22.30;99.90;;;;;;8255094;28;20113;-81
2022/07/22 20:27:48;;;;;;;14.25;8.35;;;22.20;99.90;;;;;;8253427;28;20123;-81
2022/07/22 20:31:51;;;;;;;14.40;8.30;;;21.90;99.90;;;;;;8252725;28;20027;-80
2022/07/22 20:35:51;;;;;;;15.63;8.55;;;21.90;99.90;;;;;;8256825;28;20053;-81
2022/07/22 20:39:52;;;;;;;11.45;8.93;;;21.80;99.90;;;;;;8254951;28;20125;-80
2022/07/22 20:43:52;;;;;;;15.68;9.07;;;22.20;99.90;;;;;;8260082;28;20023;-80
2022/07/22 20:47:53;;;;;;;13.68;8.52;;;22.00;99.90;;;;;;8261991;28;20114;-80
2022/07/22 20:51:53;;;;;;;13.02;8.45;;;22.30;99.90;;;;;;8257557;28;20049;-80